METAR Data
IDs: Format: Raw Decoded Include TAF

Data at: 0216 UTC 24 Sep 2018

KRHP 240205Z AUTO 00000KT 10SM SCT075 BKN085 20/20 A3013 RMK AO2 T02000200
KRHP 240145Z AUTO 00000KT 10SM SCT075 20/20 A3013 RMK AO2 T02040200
KRHP 240125Z AUTO 00000KT 10SM SCT075 21/20 A3012 RMK AO2 T02050202
KRHP 240105Z AUTO 00000KT 10SM BKN075 21/20 A3011 RMK AO2 T02050201
KRHP 240045Z AUTO 00000KT 10SM CLR 21/20 A3011 RMK AO2 T02080202
KRHP 240025Z AUTO 00000KT 10SM CLR 21/20 A3010 RMK AO2 T02120198
KRHP 240005Z AUTO 00000KT 10SM BKN110 22/20 A3010 RMK AO2 T02160198
KRHP 232345Z AUTO 00000KT 10SM SCT050 BKN110 22/20 A3009 RMK AO2 T02190200
KRHP 232325Z AUTO 00000KT 10SM SCT050 23/20 A3009 RMK AO2 T02270199
KRHP 232305Z AUTO 00000KT 10SM SCT050 23/20 A3008 RMK AO2 T02340200
KRHP 232245Z AUTO 00000KT 10SM BKN050 25/19 A3008 RMK AO2 T02500189
KRHP 232225Z AUTO 22003KT 10SM SCT050 26/18 A3008 RMK AO2 T02590182
KRHP 232205Z AUTO 21005KT 10SM CLR 27/18 A3008 RMK AO2 T02700182
KRHP 232145Z AUTO 19003KT 10SM CLR 28/18 A3007 RMK AO2 T02770182
KRHP 232125Z AUTO 00000KT 10SM SCT100 28/18 A3007 RMK AO2 T02750180
KRHP 232105Z AUTO 23003KT 10SM SCT100 27/18 A3007 RMK AO2 T02720175
KRHP 232045Z AUTO 25003KT 10SM SCT100 29/18 A3007 RMK AO2 T02860175
KRHP 232025Z AUTO 20004KT 10SM SCT100 28/17 A3007 RMK AO2 T02790173
KRHP 232005Z AUTO 00000KT 10SM SCT047 SCT060 BKN100 29/18 A3007 RMK AO2 T02850175
KRHP 231945Z AUTO 21003KT 10SM BKN047 29/18 A3008 RMK AO2 T02930176
KRHP 231925Z AUTO 00000KT 10SM SCT047 SCT060 SCT070 30/18 A3008 RMK AO2 T02950175
KRHP 231905Z AUTO 22005KT 10SM BKN047 BKN060 29/18 A3009 RMK AO2 T02920177
KRHP 231845Z AUTO 25005KT 10SM BKN045 BKN070 29/17 A3009 RMK AO2 T02900173
KRHP 231825Z AUTO 28003KT 10SM BKN043 BKN050 28/18 A3011 RMK AO2 T02820176
KRHP 231805Z AUTO 24006KT 10SM BKN043 BKN060 29/18 A3011 RMK AO2 T02860176
KRHP 231745Z AUTO 24006KT 10SM SCT060 28/17 A3012 RMK AO2 T02820172
KRHP 231725Z AUTO 19004KT 10SM CLR 28/17 A3012 RMK AO2 T02830173
KRHP 231705Z AUTO 29003KT 10SM CLR 28/17 A3012 RMK AO2 T02800173
KRHP 231645Z AUTO 23005KT 10SM CLR 27/17 A3013 RMK AO2 T02720171
KRHP 231625Z AUTO 27006KT 10SM CLR 28/17 A3013 RMK AO2 T02790174
KRHP 231605Z AUTO 17003KT 10SM CLR 27/18 A3014 RMK AO2 T02720176
KRHP 231545Z AUTO 00000KT 10SM CLR 27/18 A3014 RMK AO2 T02650177
KRHP 231525Z AUTO 00000KT 10SM CLR 25/17 A3014 RMK AO2 T02510173
KRHP 231505Z AUTO 00000KT 10SM CLR 24/18 A3015 RMK AO2 T02400180
KRHP 231445Z AUTO 00000KT 10SM CLR 24/18 A3015 RMK AO2 T02440180
KRHP 231425Z AUTO 00000KT 10SM CLR 23/19 A3015 RMK AO2 T02250187
KRHP 231405Z AUTO 00000KT 10SM CLR 20/19 A3015 RMK AO2 T02040190
KRHP 231345Z AUTO 00000KT 7SM CLR 21/19 A3014 RMK AO2 T02060190
KRHP 231325Z AUTO 00000KT 10SM CLR 20/19 A3014 RMK AO2 T01950188
KRHP 231305Z AUTO 00000KT 10SM CLR 19/19 A3014 RMK AO2 T01880188
KRHP 231245Z AUTO 00000KT 10SM CLR 18/18 A3013 RMK AO2 T01750175
KRHP 231225Z AUTO 00000KT 7SM CLR 17/17 A3013 RMK AO2 T01670167
KRHP 231205Z AUTO 00000KT 4SM BR CLR 16/16 A3012 RMK AO2 T01550155
KRHP 231145Z AUTO 00000KT 4SM BR CLR 15/15 A3012 RMK AO2 T01510151
KRHP 231125Z AUTO 00000KT 3SM BR CLR 16/16 A3011 RMK AO2 T01550155
KRHP 231105Z AUTO 00000KT 5SM BR CLR 16/16 A3011 RMK AO2 T01560156
KRHP 231045Z AUTO 00000KT 5SM BR CLR 16/16 A3011 RMK AO2 T01570157
KRHP 231025Z AUTO 00000KT 5SM BR CLR 16/16 A3011 RMK AO2 T01570157
KRHP 231005Z AUTO 00000KT 5SM BR CLR 16/16 A3011 RMK AO2 T01580158
KRHP 230945Z AUTO 00000KT 5SM BR CLR 16/16 A3011 RMK AO2 T01600160
KRHP 230925Z AUTO 00000KT 5SM BR CLR 16/16 A3010 RMK AO2 T01610161
KRHP 230905Z AUTO 00000KT 7SM CLR 16/16 A3011 RMK AO2 T01630163
KRHP 230845Z AUTO 00000KT 5SM BR CLR 16/16 A3011 RMK AO2 T01630163
KRHP 230825Z AUTO 00000KT 7SM CLR 17/17 A3011 RMK AO2 T01650165
KRHP 230805Z AUTO 00000KT 7SM SCT003 17/17 A3011 RMK AO2 T01660166
KRHP 230745Z AUTO 00000KT 7SM CLR 17/17 A3011 RMK AO2 T01660166
KRHP 230725Z AUTO 00000KT 5SM BR CLR 17/17 A3011 RMK AO2 T01660166
KRHP 230705Z AUTO 00000KT 5SM BR SCT055 17/17 A3011 RMK AO2 T01660166
KRHP 230645Z AUTO 00000KT 5SM BR CLR 17/17 A3012 RMK AO2 T01680168
KRHP 230625Z AUTO 00000KT 7SM CLR 17/17 A3012 RMK AO2 T01700170
KRHP 230605Z AUTO 00000KT 7SM CLR 17/17 A3012 RMK AO2 T01740174
KRHP 230545Z AUTO 00000KT 5SM BR CLR 17/17 A3013 RMK AO2 T01740174
KRHP 230525Z AUTO 00000KT 5SM BR SCT049 SCT070 18/18 A3013 RMK AO2 T01750175
KRHP 230505Z AUTO 00000KT 5SM BR CLR 18/18 A3014 RMK AO2 T01760176
KRHP 230445Z AUTO 00000KT 5SM BR CLR 18/18 A3014 RMK AO2 T01760176
KRHP 230425Z AUTO 00000KT 10SM CLR 18/18 A3014 RMK AO2 T01780178
KRHP 230405Z AUTO 00000KT 10SM CLR 18/18 A3014 RMK AO2 T01810181
KRHP 230345Z AUTO 00000KT 7SM CLR 19/19 A3014 RMK AO2 T01860186
KRHP 230325Z AUTO 00000KT 10SM CLR 19/19 A3014 RMK AO2 T01870187
KRHP 230305Z AUTO 00000KT 10SM CLR 19/19 A3013 RMK AO2 T01910191
KRHP 230245Z AUTO 00000KT 10SM CLR 20/20 A3013 RMK AO2 T01950195
KRHP 230225Z AUTO 00000KT 10SM CLR 20/20 A3013 RMK AO2 T01960196
KRHP 230205Z AUTO 00000KT 10SM SCT049 SCT110 20/20 A3013 RMK AO2 T02000200
KRHP 230145Z AUTO 00000KT 10SM BKN049 20/20 A3013 RMK AO2 T02040204
KRHP 230125Z AUTO 00000KT 10SM SCT049 20/20 A3012 RMK AO2 T02040204
KRHP 230105Z AUTO 00000KT 10SM CLR 21/21 A3011 RMK AO2 T02090206
KRHP 230045Z AUTO 00000KT 10SM CLR 21/21 A3011 RMK AO2 T02110205
KRHP 230025Z AUTO 00000KT 10SM CLR 21/21 A3010 RMK AO2 T02130211
KRHP 230005Z AUTO 00000KT 10SM CLR 22/21 A3009 RMK AO2 T02180210
KRHP 222345Z AUTO 00000KT 10SM CLR 23/21 A3009 RMK AO2 T02310210
KRHP 222325Z AUTO 00000KT 10SM SCT050 SCT120 24/21 A3008 RMK AO2 T02380208
KRHP 222305Z AUTO 00000KT 10SM SCT050 SCT080 SCT120 25/21 A3008 RMK AO2 T02480208
KRHP 222245Z AUTO 00000KT 10SM BKN080 BKN120 26/19 A3008 RMK AO2 T02630193
KRHP 222225Z AUTO 00000KT 10SM BKN050 BKN080 BKN120 27/19 A3007 RMK AO2 T02730193
KRHP 222205Z AUTO 22003KT 10SM BKN050 28/19 A3007 RMK AO2 T02830193
KRHP 222145Z AUTO 00000KT 10SM SCT050 28/19 A3006 RMK AO2 T02760190
KRHP 222125Z AUTO 23003KT 10SM SCT050 SCT060 30/18 A3006 RMK AO2 T02990178
KRHP 222105Z AUTO 00000KT 10SM SCT050 SCT060 30/17 A3006 RMK AO2 T03030172
KRHP 222045Z AUTO 19004KT 10SM SCT050 SCT060 31/16 A3006 RMK AO2 T03080163
KRHP 222025Z AUTO 23004KT 10SM SCT050 31/18 A3007 RMK AO2 T03090182
KRHP 222005Z AUTO 22005KT 10SM SCT048 SCT055 31/19 A3007 RMK AO2 T03100185
KRHP 221945Z AUTO 23004KT 10SM SCT046 31/19 A3008 RMK AO2 T03060191
KRHP 221925Z AUTO 22004KT 10SM SCT042 30/19 A3009 RMK AO2 T03030190
KRHP 221905Z AUTO 21004KT 10SM SCT042 31/19 A3010 RMK AO2 T03050193
KRHP 221845Z AUTO 18003KT 10SM CLR 30/19 A3011 RMK AO2 T03010188
KRHP 221825Z AUTO 25003KT 10SM SCT039 30/19 A3012 RMK AO2 T03040192
KRHP 221805Z AUTO 28003KT 10SM SCT039 30/19 A3014 RMK AO2 T02950192
KRHP 221745Z AUTO 22005KT 10SM SCT035 29/20 A3015 RMK AO2 T02920195
KRHP 221725Z AUTO 20003KT 10SM SCT035 29/20 A3015 RMK AO2 T02860197
KRHP 221705Z AUTO 24005KT 10SM SCT035 29/20 A3016 RMK AO2 T02860195
KRHP 221645Z AUTO 27003KT 10SM CLR 29/20 A3016 RMK AO2 T02870195
KRHP 221625Z AUTO 00000KT 10SM CLR 28/20 A3017 RMK AO2 T02780195
KRHP 221605Z AUTO 20003KT 10SM SCT028 27/19 A3018 RMK AO2 T02710191
KRHP 221545Z AUTO 00000KT 10SM CLR 27/20 A3018 RMK AO2 T02710196
KRHP 221525Z AUTO 00000KT 10SM CLR 27/19 A3018 RMK AO2 T02660193
KRHP 221505Z AUTO 00000KT 10SM CLR 26/19 A3019 RMK AO2 T02600190
KRHP 221445Z AUTO 00000KT 10SM CLR 25/19 A3019 RMK AO2 T02450189
KRHP 221425Z AUTO 00000KT 10SM CLR 23/18 A3019 RMK AO2 T02320184